createdAt,value
2022-11-20T00:00:11.852Z,-4.5
2022-11-20T00:03:11.729Z,-4.6
2022-11-20T00:06:11.777Z,-4.5
2022-11-20T00:09:11.745Z,-4.6
2022-11-20T00:12:11.785Z,-4.5
2022-11-20T00:15:11.713Z,-4.5
2022-11-20T00:18:11.726Z,-4.6
2022-11-20T00:21:11.644Z,-4.6
2022-11-20T00:24:11.791Z,-4.6
2022-11-20T00:27:12.025Z,-4.6
2022-11-20T00:30:17.381Z,-4.6
2022-11-20T00:33:11.720Z,-4.6
2022-11-20T00:36:11.737Z,-4.8
2022-11-20T00:39:11.746Z,-4.8
2022-11-20T00:42:11.713Z,-4.6
2022-11-20T00:45:11.786Z,-4.8
2022-11-20T00:48:11.754Z,-4.8
2022-11-20T00:51:11.692Z,-4.8
2022-11-20T00:54:11.716Z,-4.9
2022-11-20T00:57:11.755Z,-4.8
2022-11-20T01:00:11.860Z,-4.9
2022-11-20T01:03:12.055Z,-4.9
2022-11-20T01:06:11.686Z,-4.9
2022-11-20T01:09:11.798Z,-5
2022-11-20T01:12:11.824Z,-5
2022-11-20T01:15:12.272Z,-5
2022-11-20T01:18:11.781Z,-5.1
2022-11-20T01:21:12.006Z,-5.1
2022-11-20T01:24:11.778Z,-5.1
2022-11-20T01:27:13.149Z,-5.1
2022-11-20T01:30:16.389Z,-5.1
2022-11-20T01:33:11.712Z,-5.3
2022-11-20T01:36:11.840Z,-5.3
2022-11-20T01:39:11.784Z,-5.3
2022-11-20T01:42:19.585Z,-5.4
2022-11-20T01:45:12.706Z,-5.4
2022-11-20T01:48:11.675Z,-5.5
2022-11-20T01:51:11.738Z,-5.5
2022-11-20T01:54:11.787Z,-5.5
2022-11-20T01:57:11.747Z,-5.5
2022-11-20T02:00:16.006Z,-5.5
2022-11-20T02:03:11.752Z,-5.5
2022-11-20T02:06:11.942Z,-5.5
2022-11-20T02:09:11.709Z,-5.6
2022-11-20T02:12:11.995Z,-5.6
2022-11-20T02:15:12.630Z,-5.6
2022-11-20T02:18:11.910Z,-5.8
2022-11-20T02:21:11.834Z,-5.8
2022-11-20T02:24:11.854Z,-5.9
2022-11-20T02:27:11.838Z,-5.8
2022-11-20T02:30:11.909Z,-5.8
2022-11-20T02:33:11.713Z,-5.8
2022-11-20T02:36:11.899Z,-5.8
2022-11-20T02:39:12.046Z,-5.8
2022-11-20T02:42:11.897Z,-5.8
2022-11-20T02:45:12.813Z,-5.8
2022-11-20T02:48:14.036Z,-5.8
2022-11-20T02:51:11.748Z,-5.8
2022-11-20T02:54:11.740Z,-5.9
2022-11-20T02:57:11.741Z,-5.9
2022-11-20T03:00:11.771Z,-5.9
2022-11-20T03:03:11.799Z,-5.8
2022-11-20T03:06:11.782Z,-5.8
2022-11-20T03:09:11.740Z,-5.8
2022-11-20T03:12:11.963Z,-5.8
2022-11-20T03:15:11.740Z,-5.8
2022-11-20T03:18:11.705Z,-5.9
2022-11-20T03:21:11.764Z,-5.9
2022-11-20T03:24:11.787Z,-5.9
2022-11-20T03:27:11.746Z,-5.9
2022-11-20T03:30:11.814Z,-5.9
2022-11-20T03:33:11.812Z,-5.9
2022-11-20T03:36:11.793Z,-5.9
2022-11-20T03:39:11.765Z,-5.9
2022-11-20T03:42:11.689Z,-5.9
2022-11-20T03:45:11.720Z,-5.9
2022-11-20T03:48:11.755Z,-5.9
2022-11-20T03:51:11.766Z,-5.9
2022-11-20T03:54:11.752Z,-6
2022-11-20T03:57:11.748Z,-6
2022-11-20T04:00:11.751Z,-6
2022-11-20T04:03:11.714Z,-6
2022-11-20T04:06:11.734Z,-6
2022-11-20T04:09:11.808Z,-6
2022-11-20T04:12:11.834Z,-6
2022-11-20T04:15:11.738Z,-5.9
2022-11-20T04:18:11.780Z,-5.9
2022-11-20T04:21:11.667Z,-5.8
2022-11-20T04:24:11.790Z,-5.8
2022-11-20T04:27:11.764Z,-5.8
2022-11-20T04:30:11.825Z,-5.8
2022-11-20T04:33:11.758Z,-5.8
2022-11-20T04:36:11.714Z,-5.8
2022-11-20T04:39:11.782Z,-5.8
2022-11-20T04:42:11.800Z,-5.8
2022-11-20T04:45:11.812Z,-5.8
2022-11-20T04:48:11.756Z,-5.8
2022-11-20T04:51:11.831Z,-5.8
2022-11-20T04:54:11.761Z,-5.8
2022-11-20T04:57:18.849Z,-5.8
2022-11-20T05:00:12.249Z,-5.8
2022-11-20T05:03:11.764Z,-5.8
2022-11-20T05:06:11.824Z,-5.8
2022-11-20T05:09:11.765Z,-5.6
2022-11-20T05:12:11.750Z,-5.6
2022-11-20T05:15:12.054Z,-5.6
2022-11-20T05:18:11.786Z,-5.8
2022-11-20T05:21:11.797Z,-5.8
2022-11-20T05:24:12.438Z,-5.8
2022-11-20T05:27:11.728Z,-5.6
2022-11-20T05:30:11.745Z,-5.6
2022-11-20T05:33:11.921Z,-5.5
2022-11-20T05:36:11.778Z,-5.5
2022-11-20T05:39:13.168Z,-5.4
2022-11-20T05:42:11.752Z,-5.4
2022-11-20T05:45:12.582Z,-5.3
2022-11-20T05:48:11.708Z,-5.1
2022-11-20T05:51:11.688Z,-5.1
2022-11-20T05:54:11.698Z,-5
2022-11-20T05:57:11.671Z,-4.9
2022-11-20T06:00:11.996Z,-5
2022-11-20T06:03:12.043Z,-4.9
2022-11-20T06:06:11.718Z,-4.9
2022-11-20T06:09:11.719Z,-5
2022-11-20T06:12:11.731Z,-5
2022-11-20T06:15:11.827Z,-5
2022-11-20T06:18:11.723Z,-5
2022-11-20T06:21:11.755Z,-5
2022-11-20T06:24:11.831Z,-5.1
2022-11-20T06:27:11.808Z,-5.1
2022-11-20T06:30:11.755Z,-5.1
2022-11-20T06:33:11.819Z,-5.1
2022-11-20T06:36:21.120Z,-5.1
2022-11-20T06:39:11.929Z,-5.1
2022-11-20T06:42:11.791Z,-5.1
2022-11-20T06:45:11.855Z,-5
2022-11-20T06:48:11.833Z,-4.8
2022-11-20T06:51:11.778Z,-4.5
2022-11-20T06:54:11.799Z,-4.4
2022-11-20T06:57:11.827Z,-4.1
2022-11-20T07:00:11.906Z,-3.9
2022-11-20T07:03:11.821Z,-3.6
2022-11-20T07:06:11.839Z,-3.4
2022-11-20T07:09:19.047Z,-3.1
2022-11-20T07:12:11.789Z,-2.8
2022-11-20T07:15:11.738Z,-2.5
2022-11-20T07:18:11.846Z,-2.3
2022-11-20T07:21:11.812Z,-2
2022-11-20T07:24:11.700Z,-1.8
2022-11-20T07:27:11.823Z,-1.5
2022-11-20T07:30:12.268Z,-1.1
2022-11-20T07:33:11.783Z,-0.9
2022-11-20T07:36:11.756Z,-0.6
2022-11-20T07:39:11.817Z,-0.4
2022-11-20T07:42:11.779Z,-0.3
2022-11-20T07:45:11.821Z,-0.1
2022-11-20T07:48:11.789Z,0
2022-11-20T07:51:11.786Z,0.1
2022-11-20T07:54:11.781Z,0.1
2022-11-20T07:57:11.800Z,0.1
2022-11-20T08:00:11.979Z,0.1
2022-11-20T08:03:11.784Z,0.2
2022-11-20T08:06:11.782Z,0.2
2022-11-20T08:09:11.781Z,0.2
2022-11-20T08:12:11.846Z,0.2
2022-11-20T08:15:18.064Z,0.2
2022-11-20T08:18:43.347Z,0.2
2022-11-20T08:21:11.796Z,0.2
2022-11-20T08:24:11.737Z,0.2
2022-11-20T08:27:11.802Z,0.2
2022-11-20T08:30:11.843Z,0.4
2022-11-20T08:33:11.732Z,0.4
2022-11-20T08:36:11.840Z,-1.5
2022-11-20T08:39:11.862Z,-1.4
2022-11-20T08:42:11.789Z,-1.3
2022-11-20T08:45:11.828Z,-1.3
2022-11-20T08:48:11.832Z,-1.1
2022-11-20T08:51:11.763Z,-1.1
2022-11-20T08:54:11.753Z,-1
2022-11-20T08:57:11.733Z,-0.9
2022-11-20T09:00:19.592Z,-0.8
2022-11-20T09:03:11.785Z,-0.8
2022-11-20T09:06:11.743Z,-0.6
2022-11-20T09:09:18.442Z,-0.5
2022-11-20T09:12:11.720Z,-0.4
2022-11-20T09:15:11.818Z,-0.3
2022-11-20T09:18:11.824Z,0
2022-11-20T09:21:12.322Z,0.1
2022-11-20T09:24:11.899Z,0.3
2022-11-20T09:27:11.973Z,0.4
2022-11-20T09:30:12.149Z,0.4
2022-11-20T09:33:12.244Z,0.5
2022-11-20T09:36:11.756Z,0.5
2022-11-20T09:39:11.810Z,0.6
2022-11-20T09:42:11.876Z,0.8
2022-11-20T09:45:11.790Z,0.9
2022-11-20T09:48:11.758Z,1
2022-11-20T09:51:11.719Z,1.3
2022-11-20T09:54:11.906Z,1.5
2022-11-20T09:57:12.016Z,1.6
2022-11-20T10:00:12.118Z,1.9
2022-11-20T10:03:11.774Z,2
2022-11-20T10:06:11.728Z,2.2
2022-11-20T10:09:11.861Z,2.5
2022-11-20T10:12:11.796Z,2.9
2022-11-20T10:15:11.782Z,3.2
2022-11-20T10:18:11.963Z,5.4
2022-11-20T10:21:11.829Z,10.4
2022-11-20T10:24:11.836Z,11.9
2022-11-20T10:27:11.781Z,12.1
2022-11-20T10:30:11.898Z,10.9
2022-11-20T10:33:11.918Z,9.5
2022-11-20T10:36:11.737Z,8
2022-11-20T10:39:12.382Z,7.1
2022-11-20T10:42:12.148Z,7.2
2022-11-20T10:45:17.985Z,10.6
2022-11-20T10:48:12.134Z,11.5
2022-11-20T10:51:11.784Z,12.2
2022-11-20T10:54:11.965Z,16.5
2022-11-20T10:57:11.900Z,16.6
2022-11-20T11:00:11.902Z,14.9
2022-11-20T11:03:11.948Z,14.3
2022-11-20T11:06:11.915Z,13.6
2022-11-20T11:09:11.861Z,14
2022-11-20T11:12:18.502Z,15.5
2022-11-20T11:15:11.815Z,15.6
2022-11-20T11:18:11.866Z,15.3
2022-11-20T11:21:11.823Z,14.1
2022-11-20T11:24:52.375Z,14.3
2022-11-20T11:27:19.304Z,11.8
2022-11-20T11:30:12.082Z,13.5
2022-11-20T11:33:11.810Z,16
2022-11-20T11:36:11.981Z,17.4
2022-11-20T11:39:11.782Z,18.6
2022-11-20T11:42:11.996Z,19.6
2022-11-20T11:45:11.810Z,20.4
2022-11-20T11:48:11.898Z,21
2022-11-20T11:51:11.855Z,20.8
2022-11-20T11:54:11.835Z,16.5
2022-11-20T11:57:11.799Z,14.3
2022-11-20T12:00:12.192Z,13.5
2022-11-20T12:03:11.956Z,15.3
2022-11-20T12:06:11.879Z,17
2022-11-20T12:09:12.006Z,13.9
2022-11-20T12:12:11.751Z,11.8
2022-11-20T12:15:12.163Z,10.3
2022-11-20T12:18:12.064Z,9.1
2022-11-20T12:21:12.322Z,8.4
2022-11-20T12:24:12.243Z,7.7
2022-11-20T12:27:11.810Z,7.5
2022-11-20T12:30:12.243Z,7.1
2022-11-20T12:33:12.148Z,6.9
2022-11-20T12:36:11.935Z,7.1
2022-11-20T12:39:11.979Z,7.5
2022-11-20T12:42:11.900Z,7.2
2022-11-20T12:45:11.827Z,7.2
2022-11-20T12:48:11.829Z,7.9
2022-11-20T12:51:27.232Z,8.3
2022-11-20T12:54:11.915Z,8.9
2022-11-20T12:57:15.391Z,9
2022-11-20T13:00:12.413Z,8.9
2022-11-20T13:03:12.026Z,8.9
2022-11-20T13:06:11.804Z,9.1
2022-11-20T13:09:12.048Z,9.4
2022-11-20T13:12:11.853Z,9
2022-11-20T13:15:11.788Z,8.8
2022-11-20T13:18:11.892Z,9
2022-11-20T13:21:11.784Z,8.9
2022-11-20T13:24:11.837Z,10.1
2022-11-20T13:27:11.776Z,8.8
2022-11-20T13:30:11.973Z,7.7
2022-11-20T13:33:11.820Z,6.7
2022-11-20T13:36:11.796Z,6
2022-11-20T13:39:11.730Z,5.5
2022-11-20T13:42:11.829Z,5.1
2022-11-20T13:45:11.760Z,4.9
2022-11-20T13:48:11.867Z,4.5
2022-11-20T13:51:11.757Z,4.2
2022-11-20T13:54:11.823Z,4
2022-11-20T13:57:11.802Z,3.9
2022-11-20T14:00:12.393Z,3.7
2022-11-20T14:03:11.789Z,3.6
2022-11-20T14:06:11.781Z,3.6
2022-11-20T14:09:11.768Z,3.6
2022-11-20T14:12:11.761Z,3.6
2022-11-20T14:15:11.834Z,3.5
2022-11-20T14:18:11.816Z,3.4
2022-11-20T14:21:11.818Z,3.2
2022-11-20T14:24:11.765Z,3.1
2022-11-20T14:27:12.221Z,3.1
2022-11-20T14:30:11.968Z,3
2022-11-20T14:33:11.787Z,3.2
2022-11-20T14:36:11.779Z,3
2022-11-20T14:39:11.844Z,2.7
2022-11-20T14:42:11.752Z,2.6
2022-11-20T14:45:11.898Z,2.5
2022-11-20T14:48:11.823Z,2.4
2022-11-20T14:51:11.849Z,2.4
2022-11-20T14:54:11.885Z,2.2
2022-11-20T14:57:11.851Z,2.1
2022-11-20T15:00:11.929Z,2
2022-11-20T15:03:11.769Z,1.9
2022-11-20T15:06:11.797Z,1.9
2022-11-20T15:09:11.964Z,1.8
2022-11-20T15:12:11.739Z,1.5
2022-11-20T15:15:11.799Z,1.3
2022-11-20T15:18:11.881Z,1.1
2022-11-20T15:21:11.889Z,0.9
2022-11-20T15:24:11.731Z,0.6
2022-11-20T15:27:11.733Z,0.5
2022-11-20T15:30:11.873Z,0.4
2022-11-20T15:33:11.764Z,0.3
2022-11-20T15:36:12.135Z,0.1
2022-11-20T15:39:11.765Z,0
2022-11-20T15:42:11.721Z,-0.3
2022-11-20T15:45:11.777Z,-0.4
2022-11-20T15:48:11.725Z,-0.6
2022-11-20T15:51:11.871Z,-0.8
2022-11-20T15:54:11.783Z,-0.9
2022-11-20T15:57:11.677Z,-0.9
2022-11-20T16:00:11.820Z,-1
2022-11-20T16:03:11.848Z,-1.1
2022-11-20T16:06:11.826Z,-1.3
2022-11-20T16:09:11.839Z,-1.4
2022-11-20T16:12:11.798Z,-1.4
2022-11-20T16:15:18.311Z,-1.5
2022-11-20T16:18:11.751Z,0.4
2022-11-20T16:21:11.777Z,0.4
2022-11-20T16:24:11.762Z,0.1
2022-11-20T16:27:11.793Z,0.1
2022-11-20T16:30:11.831Z,0
2022-11-20T16:33:11.768Z,0
2022-11-20T16:36:11.753Z,-0.1
2022-11-20T16:39:11.747Z,-0.3
2022-11-20T16:42:11.779Z,-0.3
2022-11-20T16:45:11.781Z,-0.4
2022-11-20T16:48:11.811Z,-0.4
2022-11-20T16:51:11.886Z,-0.5
2022-11-20T16:54:14.086Z,-0.5
2022-11-20T16:57:11.723Z,-0.5
2022-11-20T17:00:14.075Z,-0.6
2022-11-20T17:03:11.751Z,-0.6
2022-11-20T17:06:11.618Z,-0.8
2022-11-20T17:09:11.833Z,-0.8
2022-11-20T17:12:11.763Z,-0.8
2022-11-20T17:15:11.858Z,-0.9
2022-11-20T17:18:11.752Z,-0.9
2022-11-20T17:21:11.795Z,-1
2022-11-20T17:24:11.730Z,-1
2022-11-20T17:27:11.785Z,-1.1
2022-11-20T17:30:11.794Z,-1.3
2022-11-20T17:33:11.790Z,-1.3
2022-11-20T17:36:12.075Z,-1.4
2022-11-20T17:39:11.763Z,-1.4
2022-11-20T17:42:11.751Z,-1.4
2022-11-20T17:45:11.748Z,-1.4
2022-11-20T17:48:11.747Z,-1.4
2022-11-20T17:51:11.744Z,-1.4
2022-11-20T17:54:12.044Z,-1.4
2022-11-20T17:57:11.723Z,-1.3
2022-11-20T18:00:12.137Z,-1.1
2022-11-20T18:03:11.805Z,-1
2022-11-20T18:06:11.809Z,-1
2022-11-20T18:09:11.743Z,-0.9
2022-11-20T18:12:11.771Z,-0.9
2022-11-20T18:15:11.786Z,-0.9
2022-11-20T18:18:11.755Z,-0.8
2022-11-20T18:21:11.754Z,-0.6
2022-11-20T18:24:11.783Z,-0.6
2022-11-20T18:27:12.047Z,-0.6
2022-11-20T18:30:13.180Z,-0.5
2022-11-20T18:33:11.781Z,-0.5
2022-11-20T18:36:11.729Z,-0.5
2022-11-20T18:39:11.833Z,-0.5
2022-11-20T18:42:12.491Z,-0.5
2022-11-20T18:45:11.782Z,-0.5
2022-11-20T18:48:11.804Z,-0.5
2022-11-20T18:51:11.752Z,-0.4
2022-11-20T18:54:11.723Z,-0.3
2022-11-20T18:57:11.843Z,-0.1
2022-11-20T19:00:20.389Z,-0.1
2022-11-20T19:03:11.751Z,0
2022-11-20T19:06:11.721Z,0.1
2022-11-20T19:09:11.777Z,0.2
2022-11-20T19:12:11.705Z,0.4
2022-11-20T19:15:11.791Z,-1.5
2022-11-20T19:18:11.960Z,-1.4
2022-11-20T19:21:11.776Z,-1.3
2022-11-20T19:24:11.795Z,-1.1
2022-11-20T19:27:11.817Z,-1
2022-11-20T19:30:12.579Z,-1
2022-11-20T19:33:11.771Z,-0.9
2022-11-20T19:36:11.804Z,-0.9
2022-11-20T19:39:11.813Z,-0.8
2022-11-20T19:42:11.783Z,-0.8
2022-11-20T19:45:11.799Z,-0.6
2022-11-20T19:48:19.716Z,-0.6
2022-11-20T19:51:11.674Z,-0.5
2022-11-20T19:54:11.718Z,-0.5
2022-11-20T19:57:11.766Z,-0.5
2022-11-20T20:00:12.004Z,-0.5
2022-11-20T20:03:11.861Z,-0.5
2022-11-20T20:06:11.803Z,-0.4
2022-11-20T20:09:11.801Z,-0.4
2022-11-20T20:12:11.828Z,-0.4
2022-11-20T20:15:11.836Z,-0.3
2022-11-20T20:18:11.753Z,-0.3
2022-11-20T20:21:14.978Z,-0.3
2022-11-20T20:24:11.750Z,-0.3
2022-11-20T20:27:11.797Z,-0.3
2022-11-20T20:30:12.504Z,-0.1
2022-11-20T20:33:11.808Z,-0.1
2022-11-20T20:36:11.790Z,-0.1
2022-11-20T20:39:11.904Z,-0.1
2022-11-20T20:42:11.812Z,0
2022-11-20T20:45:12.870Z,0
2022-11-20T20:48:11.768Z,0
2022-11-20T20:51:11.759Z,0
2022-11-20T20:54:11.763Z,0
2022-11-20T20:57:11.736Z,0
2022-11-20T21:00:11.880Z,0
2022-11-20T21:03:11.666Z,0.1
2022-11-20T21:06:11.794Z,0.1
2022-11-20T21:09:11.697Z,0.1
2022-11-20T21:12:11.738Z,0.1
2022-11-20T21:15:11.696Z,0.1
2022-11-20T21:18:11.691Z,0.1
2022-11-20T21:21:11.755Z,0.1
2022-11-20T21:24:11.847Z,0.1
2022-11-20T21:27:11.749Z,0.1
2022-11-20T21:30:11.790Z,0.1
2022-11-20T21:33:11.771Z,0.1
2022-11-20T21:36:11.777Z,0.1
2022-11-20T21:39:11.801Z,0.3
2022-11-20T21:42:11.716Z,0.3
2022-11-20T21:45:12.064Z,0.3
2022-11-20T21:48:11.752Z,0.3
2022-11-20T21:51:17.822Z,0.3
2022-11-20T21:54:11.776Z,0.3
2022-11-20T21:57:11.730Z,0.3
2022-11-20T22:00:11.863Z,0.3
2022-11-20T22:03:11.654Z,0.3
2022-11-20T22:06:11.732Z,0.3
2022-11-20T22:09:11.785Z,0.3
2022-11-20T22:12:11.727Z,0.3
2022-11-20T22:15:11.796Z,0.3
2022-11-20T22:18:11.731Z,0.3
2022-11-20T22:21:11.742Z,0.3
2022-11-20T22:24:11.777Z,0.3
2022-11-20T22:27:11.753Z,0.3
2022-11-20T22:30:11.848Z,0.3
2022-11-20T22:33:18.603Z,0.3
2022-11-20T22:36:11.797Z,0.3
2022-11-20T22:39:11.755Z,0.4
2022-11-20T22:42:11.798Z,0.4
2022-11-20T22:45:11.763Z,0.4
2022-11-20T22:48:11.800Z,0.4
2022-11-20T22:51:11.784Z,0.4
2022-11-20T22:54:11.774Z,0.4
2022-11-20T22:57:11.741Z,0.4
2022-11-20T23:00:14.488Z,0.3
2022-11-20T23:03:12.288Z,0.4
2022-11-20T23:06:11.748Z,0.4
2022-11-20T23:09:11.745Z,0.4
2022-11-20T23:12:11.725Z,0.4
2022-11-20T23:15:11.760Z,0.4
2022-11-20T23:18:11.744Z,0.4
2022-11-20T23:21:11.912Z,0.4
2022-11-20T23:24:11.786Z,0.3
2022-11-20T23:27:11.764Z,0.3
2022-11-20T23:30:11.779Z,0.4
2022-11-20T23:33:11.818Z,0.4
2022-11-20T23:36:11.722Z,0.4
2022-11-20T23:39:11.759Z,0.3
2022-11-20T23:42:11.725Z,0.3
2022-11-20T23:45:11.721Z,0.3
2022-11-20T23:48:11.707Z,0.3
2022-11-20T23:51:11.787Z,0.3
2022-11-20T23:54:16.133Z,0.3
2022-11-20T23:57:11.730Z,0.3
